Time;durP1;ratioP1;P1;durP2;ratioP2;P2;SDS_P1;SDS_P2;PMS_P1;PMS_P2;Temp;Humidity;BMP_temperature;BMP_pressure;BME280_temperature;BME280_humidity;BME280_pressure;Samples;Min_cycle;Max_cycle;Signal;HPM_P1;HPM_P2
2022/06/09 00:01:35;;;;;;;13.27;4.15;;;;;;;12.70;100.00;100777.75;4993593;28;20518;-58
2022/06/09 00:04:09;;;;;;;18.40;4.75;;;;;;;12.68;99.52;100777.03;4994521;28;20504;-58
2022/06/09 00:06:50;;;;;;;18.55;4.65;;;;;;;12.70;99.83;100783.09;4995770;28;20096;-59
2022/06/09 00:09:18;;;;;;;15.20;4.57;;;;;;;12.69;99.62;100791.22;4995596;28;20038;-58
2022/06/09 00:11:47;;;;;;;15.52;4.80;;;;;;;12.69;100.00;100786.75;4995693;28;20070;-58
2022/06/09 00:14:12;;;;;;;13.32;5.05;;;;;;;12.69;100.00;100793.88;4995611;28;20076;-58
2022/06/09 00:16:38;;;;;;;14.40;4.55;;;;;;;12.71;100.00;100791.94;4995440;28;20019;-58
2022/06/09 00:19:05;;;;;;;15.98;4.18;;;;;;;12.71;100.00;100794.59;4995134;28;20093;-57
2022/06/09 00:21:31;;;;;;;14.10;4.63;;;;;;;12.72;100.00;100796.28;4995547;28;20109;-58
2022/06/09 00:23:57;;;;;;;16.60;5.07;;;;;;;12.73;100.00;100790.81;4995258;28;20504;-58
2022/06/09 00:26:22;;;;;;;17.00;4.85;;;;;;;12.75;100.00;100793.34;4994674;28;20058;-58
2022/06/09 00:28:47;;;;;;;14.52;4.88;;;;;;;12.74;100.00;100789.84;4995198;28;20038;-59
2022/06/09 00:31:13;;;;;;;14.77;4.68;;;;;;;12.75;100.00;100796.84;4995383;28;20105;-58
2022/06/09 00:33:38;;;;;;;14.35;4.03;;;;;;;12.77;100.00;100791.38;4983320;28;20065;-58
2022/06/09 00:36:03;;;;;;;17.65;4.38;;;;;;;12.77;100.00;100794.91;4992842;28;20103;-58
2022/06/09 00:38:29;;;;;;;16.88;4.30;;;;;;;12.76;100.00;100795.88;4988925;28;20030;-58
2022/06/09 00:40:58;;;;;;;22.48;5.07;;;;;;;12.75;100.00;100793.34;4987357;28;20022;-59
2022/06/09 00:43:23;;;;;;;15.27;4.40;;;;;;;12.75;100.00;100799.50;4995119;28;20030;-58
2022/06/09 00:46:21;;;;;;;16.10;4.38;;;;;;;12.77;100.00;100799.38;4995179;28;20034;-58
2022/06/09 00:48:51;;;;;;;18.27;4.53;;;;;;;12.72;99.66;100804.28;4992997;28;20053;-58
2022/06/09 00:51:37;;;;;;;18.65;4.80;;;;;;;12.72;100.00;100798.94;4994490;28;20037;-59
2022/06/09 00:54:14;;;;;;;18.25;5.18;;;;;;;12.68;100.00;100813.53;4966757;28;20030;-58
2022/06/09 00:56:45;;;;;;;21.00;5.07;;;;;;;12.65;99.91;100808.44;4994464;28;20103;-58
2022/06/09 00:59:13;;;;;;;20.60;4.85;;;;;;;12.64;99.89;100804.09;4989654;28;20038;-58
2022/06/09 01:01:39;;;;;;;19.37;5.20;;;;;;;12.62;100.00;100809.53;4994714;28;20101;-58
2022/06/09 01:04:08;;;;;;;17.10;4.70;;;;;;;12.61;99.83;100812.34;4994627;28;20122;-57
2022/06/09 01:06:38;;;;;;;;;;;;;;;12.69;98.81;100804.53;4984688;28;20039;-58
2022/06/09 01:09:03;;;;;;;16.52;4.63;;;;;;;12.61;99.65;100813.19;4991267;28;19928;-58
2022/06/09 01:11:28;;;;;;;21.20;4.53;;;;;;;12.58;99.72;100814.28;4994075;28;20022;-58
2022/06/09 01:13:57;;;;;;;19.67;5.47;;;;;;;12.57;100.00;100809.97;4983299;28;20034;-59
2022/06/09 01:16:30;;;;;;;18.73;5.25;;;;;;;12.56;100.00;100815.41;4994391;28;20057;-58
2022/06/09 01:19:17;;;;;;;16.23;5.18;;;;;;;12.56;100.00;100818.91;4981039;28;20023;-58
2022/06/09 01:22:08;;;;;;;19.67;5.13;;;;;;;12.57;100.00;100817.09;4982727;28;20042;-58
2022/06/09 01:25:01;;;;;;;24.20;5.80;;;;;;;12.56;100.00;100813.59;4994155;28;20057;-58
2022/06/09 01:27:55;;;;;;;27.25;5.78;;;;;;;12.56;100.00;100826.91;4992794;28;20049;-58
2022/06/09 01:30:40;;;;;;;21.02;5.65;;;;;;;12.55;100.00;100825.22;4982839;28;20034;-59
2022/06/09 01:33:13;;;;;;;24.98;5.68;;;;;;;12.55;100.00;100825.22;4977449;28;20034;-58
2022/06/09 01:35:48;;;;;;;17.48;5.20;;;;;;;12.55;100.00;100825.22;4984382;28;20485;-58
2022/06/09 01:38:14;;;;;;;21.73;5.80;;;;;;;12.55;100.00;100830.53;4992458;28;20084;-59
2022/06/09 01:40:39;;;;;;;23.13;6.00;;;;;;;12.57;100.00;100825.94;4992992;28;20030;-59
2022/06/09 01:43:05;;;;;;;26.08;6.07;;;;;;;12.56;100.00;100834.91;4992305;28;20030;-59
2022/06/09 01:45:56;;;;;;;21.42;6.72;;;;;;;12.55;100.00;100830.53;4993363;28;20113;-59
2022/06/09 01:48:24;;;;;;;18.48;5.97;;;;;;;12.55;100.00;100829.69;4992657;28;20023;-58
2022/06/09 01:50:52;;;;;;;21.33;6.00;;;;;;;12.56;100.00;100842.06;4992510;28;20116;-59
2022/06/09 01:53:23;;;;;;;28.35;6.50;;;;;;;12.53;100.00;100843.16;4992395;28;20034;-59
2022/06/09 01:55:55;;;;;;;25.45;7.18;;;;;;;12.55;100.00;100843.03;4984227;28;20058;-58
2022/06/09 01:58:26;;;;;;;24.27;6.60;;;;;;;12.55;100.00;100849.19;4989282;28;20038;-59
2022/06/09 02:00:54;;;;;;;24.92;6.15;;;;;;;12.54;100.00;100844.84;4985427;28;20639;-59
2022/06/09 02:03:29;;;;;;;21.02;5.68;;;;;;;12.54;100.00;100843.97;4988405;28;20033;-58
2022/06/09 02:05:58;;;;;;;21.55;6.60;;;;;;;12.51;100.00;100838.94;4992659;28;20556;-59
2022/06/09 02:08:24;;;;;;;21.73;6.43;;;;;;;12.51;100.00;100839.78;4992679;28;20407;-59
2022/06/09 02:10:57;;;;;;;20.20;7.05;;;;;;;12.53;100.00;100844.97;4992054;28;20030;-58
2022/06/09 02:13:29;;;;;;;22.40;7.25;;;;;;;12.51;100.00;100854.94;4992541;28;20113;-58
2022/06/09 02:15:59;;;;;;;24.30;6.90;;;;;;;12.49;100.00;100849.72;4986636;28;20042;-58
2022/06/09 02:18:27;;;;;;;18.98;6.25;;;;;;;12.49;100.00;100857.72;4984725;28;20045;-58
2022/06/09 02:20:58;;;;;;;27.38;7.70;;;;;;;12.50;100.00;100859.41;4979197;28;20303;-59
2022/06/09 02:23:24;;;;;;;16.58;6.00;;;;;;;12.47;100.00;100858.81;4982139;28;20035;-59
2022/06/09 02:25:50;;;;;;;28.57;7.93;;;;;;;12.46;100.00;100854.47;4994542;23;1048376;-57
2022/06/09 02:28:15;;;;;;;27.45;7.43;;;;;;;12.44;100.00;100862.59;5013033;28;20379;-56
2022/06/09 02:30:41;;;;;;;28.52;7.32;;;;;;;12.44;100.00;100867.06;5011922;28;20100;-56
2022/06/09 02:33:07;;;;;;;27.90;8.88;;;;;;;12.42;100.00;100863.69;5013401;28;20021;-57
2022/06/09 02:35:33;;;;;;;32.25;8.43;;;;;;;12.41;100.00;100873.50;5007544;28;20021;-57
2022/06/09 02:38:00;;;;;;;31.38;7.72;;;;;;;12.39;100.00;100873.63;5012826;28;20500;-56
2022/06/09 02:40:27;;;;;;;23.13;7.60;;;;;;;12.37;100.00;100872.91;5012512;28;20018;-57
2022/06/09 02:42:53;;;;;;;26.30;7.90;;;;;;;12.37;100.00;100878.25;5013207;28;20054;-57
2022/06/09 02:45:18;;;;;;;31.95;8.65;;;;;;;12.35;100.00;100874.00;5012768;28;20068;-57
2022/06/09 02:47:44;;;;;;;29.13;8.07;;;;;;;12.34;100.00;100878.50;5012902;28;20037;-56
2022/06/09 02:50:10;;;;;;;31.38;8.00;;;;;;;12.32;100.00;100880.47;5012480;28;20025;-56
2022/06/09 02:52:36;;;;;;;28.23;7.30;;;;;;;12.32;100.00;100882.25;5013063;28;20037;-55
2022/06/09 02:55:02;;;;;;;26.10;7.80;;;;;;;12.29;100.00;100880.72;5012965;28;20114;-57
2022/06/09 02:57:29;;;;;;;30.40;8.68;;;;;;;12.29;100.00;100880.72;5008993;28;20033;-57
2022/06/09 02:59:54;;;;;;;25.02;7.97;;;;;;;12.30;100.00;100890.38;5012281;28;20084;-57
2022/06/09 03:02:19;;;;;;;29.65;8.40;;;;;;;12.29;100.00;100891.34;5011391;28;20058;-57
2022/06/09 03:04:45;;;;;;;29.65;8.75;;;;;;;12.26;100.00;100899.59;4993340;28;20393;-56
2022/06/09 03:07:12;;;;;;;29.33;8.55;;;;;;;12.27;100.00;100903.09;5007102;28;20022;-56
2022/06/09 03:09:37;;;;;;;31.65;9.00;;;;;;;12.24;100.00;100904.22;5012546;28;20524;-56
2022/06/09 03:12:03;;;;;;;27.17;8.35;;;;;;;12.24;100.00;100908.66;5012828;28;20053;-57
2022/06/09 03:14:28;;;;;;;30.25;8.60;;;;;;;12.21;100.00;100918.63;5012418;28;20355;-57
2022/06/09 03:16:54;;;;;;;22.80;7.70;;;;;;;12.24;100.00;100917.53;5001979;28;20033;-57
2022/06/09 03:19:19;;;;;;;25.38;8.30;;;;;;;12.24;100.00;100925.50;4994005;28;20477;-57
2022/06/09 03:21:45;;;;;;;24.63;8.52;;;;;;;12.23;100.00;100920.31;4998023;28;20533;-56
2022/06/09 03:24:10;;;;;;;32.45;8.95;;;;;;;12.22;100.00;100932.75;4993791;28;20030;-57
2022/06/09 03:26:36;;;;;;;24.17;8.30;;;;;;;12.21;100.00;100934.59;5008783;28;20041;-57
2022/06/09 03:29:01;;;;;;;26.75;7.93;;;;;;;12.20;100.00;100927.56;5012365;28;20046;-56
2022/06/09 03:31:26;;;;;;;31.77;8.68;;;;;;;12.20;100.00;100932.88;5003020;28;20018;-56
2022/06/09 03:33:52;;;;;;;27.08;8.57;;;;;;;12.21;100.00;100939.06;5010548;28;20026;-56
2022/06/09 03:36:17;;;;;;;23.35;8.07;;;;;;;12.20;100.00;100943.53;4995305;28;20053;-56
2022/06/09 03:38:42;;;;;;;22.52;8.65;;;;;;;12.18;100.00;100947.31;5014091;28;20022;-56
2022/06/09 03:41:08;;;;;;;29.58;7.97;;;;;;;12.17;100.00;100954.47;5006144;28;20037;-57
2022/06/09 03:43:34;;;;;;;23.60;7.72;;;;;;;12.17;100.00;100958.94;5015654;28;20054;-57
2022/06/09 03:46:00;;;;;;;22.98;9.02;;;;;;;12.17;100.00;100950.94;5008386;28;20030;-57
2022/06/09 03:48:25;;;;;;;27.55;8.48;;;;;;;12.16;100.00;100957.25;5016271;28;20045;-56
2022/06/09 03:50:51;;;;;;;23.08;8.32;;;;;;;12.16;100.00;100959.91;5005562;28;20026;-57
2022/06/09 03:53:16;;;;;;;29.27;8.75;;;;;;;12.14;100.00;100961.84;5016275;28;20075;-57
2022/06/09 03:55:41;;;;;;;30.45;9.40;;;;;;;12.14;100.00;100969.81;5009730;28;20048;-57
2022/06/09 03:58:06;;;;;;;26.38;8.63;;;;;;;12.14;100.00;100969.81;5014589;28;20029;-57
2022/06/09 04:00:32;;;;;;;27.20;9.52;;;;;;;12.10;100.00;100973.72;5012060;28;20505;-57
2022/06/09 04:02:58;;;;;;;23.23;7.88;;;;;;;12.11;100.00;100978.09;5014519;28;20062;-56
2022/06/09 04:05:24;;;;;;;29.30;8.90;;;;;;;12.11;100.00;100986.91;5016105;28;20034;-56
2022/06/09 04:07:50;;;;;;;24.48;8.82;;;;;;;12.11;100.00;100989.56;5015764;28;20147;-56
2022/06/09 04:10:20;;;;;;;30.73;9.10;;;;;;;12.11;100.00;100994.91;5005459;28;20097;-57
2022/06/09 04:12:46;;;;;;;27.80;8.60;;;;;;;12.13;100.00;100994.78;5011360;28;20034;-56
2022/06/09 04:15:12;;;;;;;29.58;8.73;;;;;;;12.12;100.00;100993.91;5011199;28;20026;-56
2022/06/09 04:17:37;;;;;;;24.75;8.27;;;;;;;12.11;100.00;100997.56;5010014;28;20109;-55
2022/06/09 04:20:04;;;;;;;27.23;8.57;;;;;;;12.10;100.00;100998.50;4999939;28;20031;-56
2022/06/09 04:22:29;;;;;;;24.67;8.07;;;;;;;12.09;100.00;101003.97;4999481;28;20401;-56
2022/06/09 04:24:55;;;;;;;27.63;9.00;;;;;;;12.10;100.00;101003.00;5005191;28;20029;-56
2022/06/09 04:27:21;;;;;;;25.40;8.70;;;;;;;12.10;100.00;101005.66;5006932;28;20382;-56
2022/06/09 04:29:46;;;;;;;25.40;8.40;;;;;;;12.10;100.00;101005.66;5002568;28;20053;-56
2022/06/09 04:32:12;;;;;;;28.98;8.65;;;;;;;12.11;100.00;101012.69;5015807;28;20018;-57
2022/06/09 04:34:37;;;;;;;25.98;8.52;;;;;;;12.12;100.00;101020.53;5015334;28;20038;-56
2022/06/09 04:37:02;;;;;;;33.80;9.13;;;;;;;12.13;100.00;101018.75;5001640;28;20076;-57
2022/06/09 04:39:28;;;;;;;26.48;9.10;;;;;;;12.15;100.00;101022.13;5006833;28;20026;-56
2022/06/09 04:41:53;;;;;;;23.83;8.45;;;;;;;12.20;100.00;101022.59;5012984;28;20117;-58
2022/06/09 04:44:18;;;;;;;22.95;8.38;;;;;;;12.26;100.00;101023.91;5015290;28;20466;-57
2022/06/09 04:46:43;;;;;;;29.80;9.20;;;;;;;12.28;100.00;101035.28;5014724;28;20030;-58
2022/06/09 04:49:09;;;;;;;27.05;10.13;;;;;;;12.32;100.00;101036.72;5008356;28;20029;-57
2022/06/09 04:51:34;;;;;;;25.80;8.48;;;;;;;12.37;100.00;101038.06;5015054;28;20029;-57
2022/06/09 04:53:59;;;;;;;31.73;9.10;;;;;;;12.39;100.00;101033.44;5001030;28;20026;-57
2022/06/09 04:56:25;;;;;;;25.98;9.40;;;;;;;12.44;100.00;101030.41;5008127;28;20110;-56
2022/06/09 04:58:51;;;;;;;22.98;9.13;;;;;;;12.52;100.00;101045.75;5014894;28;20543;-57
2022/06/09 05:01:25;;;;;;;28.67;9.10;;;;;;;12.57;100.00;101044.44;5008046;28;20080;-56
2022/06/09 05:03:52;;;;;;;32.67;9.07;;;;;;;12.64;100.00;101044.78;5014831;28;20033;-56
2022/06/09 05:06:18;;;;;;;26.95;9.02;;;;;;;12.74;100.00;101051.03;5015036;28;20030;-57
2022/06/09 05:08:43;;;;;;;23.27;9.13;;;;;;;12.82;100.00;101055.72;5014917;28;20543;-56
2022/06/09 05:11:09;;;;;;;24.05;9.20;;;;;;;12.90;100.00;101063.91;5002613;28;20033;-57
2022/06/09 05:13:35;;;;;;;29.33;9.85;;;;;;;13.00;100.00;101076.50;5014792;28;20219;-56
2022/06/09 05:16:01;;;;;;;25.05;9.43;;;;;;;13.10;100.00;101078.25;5001343;28;20022;-57
2022/06/09 05:18:30;;;;;;;26.48;9.52;;;;;;;13.20;100.00;101085.50;5014682;28;20120;-57
2022/06/09 05:20:57;;;;;;;29.85;9.20;;;;;;;13.28;100.00;101083.88;5003981;28;20034;-56
2022/06/09 05:23:23;;;;;;;23.92;8.77;;;;;;;13.33;100.00;101086.19;5014280;28;20049;-55
2022/06/09 05:25:50;;;;;;;27.13;9.05;;;;;;;13.42;100.00;101087.22;4997532;28;20050;-55
2022/06/09 05:28:16;;;;;;;26.33;8.20;;;;;;;13.47;100.00;101088.53;5008487;28;20065;-56
2022/06/09 05:30:41;;;;;;;22.67;7.63;;;;;;;13.54;100.00;101093.34;5002131;28;20030;-56
2022/06/09 05:33:07;;;;;;;22.45;7.78;;;;;;;13.54;100.00;101104.00;5007622;28;20025;-56
2022/06/09 05:35:32;;;;;;;23.27;7.65;;;;;;;13.53;99.18;101107.69;5000163;28;20038;-56
2022/06/09 05:46:10;;;;;;;17.48;6.72;;;;;;;13.54;99.33;101122.69;4996865;28;20101;-56
2022/06/09 05:48:35;;;;;;;24.08;7.50;;;;;;;13.53;98.96;101124.53;5003896;28;20030;-55
2022/06/09 05:51:01;;;;;;;25.02;8.20;;;;;;;13.56;99.53;101131.44;5008337;28;20033;-56
2022/06/09 05:53:27;;;;;;;26.40;8.05;;;;;;;13.62;100.00;101129.09;5009470;28;20088;-57
2022/06/09 05:55:52;;;;;;;21.52;7.63;;;;;;;13.73;99.54;101125.50;5013569;28;20514;-56
2022/06/09 05:58:18;;;;;;;21.05;8.15;;;;;;;13.96;100.00;101134.19;5008536;28;20037;-56
2022/06/09 06:00:45;;;;;;;23.70;8.13;;;;;;;14.22;100.00;101145.31;5003375;28;20030;-55
2022/06/09 06:03:12;;;;;;;22.02;7.95;;;;;;;14.46;99.82;101143.28;5009099;28;20033;-56
2022/06/09 06:08:21;;;;;;;21.98;6.88;;;;;;;14.58;96.59;101147.53;5013607;28;20129;-55
2022/06/09 06:10:47;;;;;;;19.23;6.95;;;;;;;14.56;95.54;101153.00;5010540;28;20108;-56
2022/06/09 06:13:13;;;;;;;28.83;7.40;;;;;;;14.60;96.54;101156.28;5013357;28;20030;-57
2022/06/09 06:15:38;;;;;;;22.48;6.88;;;;;;;14.66;96.14;101161.09;5008022;28;20069;-56
2022/06/09 06:18:04;;;;;;;20.30;7.10;;;;;;;14.68;96.10;101163.63;5005302;28;20029;-56
2022/06/09 06:20:33;;;;;;;22.50;7.03;;;;;;;14.71;95.63;101172.22;5000031;28;20091;-56
2022/06/09 06:22:59;;;;;;;20.90;6.22;;;;;;;14.73;94.77;101172.91;5008644;28;20041;-56
2022/06/09 06:25:25;;;;;;;21.45;6.88;;;;;;;14.79;96.51;101177.72;4976763;28;20050;-56
2022/06/09 06:27:50;;;;;;;17.15;6.20;;;;;;;14.83;95.92;101178.31;5000553;28;20077;-56
2022/06/09 06:30:16;;;;;;;16.15;6.45;;;;;;;14.86;95.97;101180.69;4995559;28;20045;-56
2022/06/09 06:32:41;;;;;;;16.70;6.00;;;;;;;14.85;93.58;101181.69;5013067;28;20034;-56
2022/06/09 06:35:07;;;;;;;20.88;6.00;;;;;;;14.87;93.86;101190.44;5007842;28;20065;-56
2022/06/09 06:37:33;;;;;;;20.85;6.85;;;;;;;14.89;94.42;101190.25;4998784;28;20084;-55
2022/06/09 06:39:58;;;;;;;15.30;6.32;;;;;;;14.85;94.23;101189.69;5005848;28;20061;-56
2022/06/09 06:42:24;;;;;;;21.92;6.05;;;;;;;14.89;94.00;101192.94;5006534;28;20076;-56
2022/06/09 06:44:49;;;;;;;21.75;5.75;;;;;;;14.93;94.19;101205.91;5012733;28;20021;-56
2022/06/09 06:47:14;;;;;;;13.80;5.90;;;;;;;14.98;94.38;101205.50;5006360;28;20034;-55
2022/06/09 06:49:40;;;;;;;14.75;6.00;;;;;;;14.99;93.44;101218.75;5009153;28;20041;-56
2022/06/09 06:52:05;;;;;;;15.02;5.78;;;;;;;14.99;93.21;101218.75;5001326;28;20508;-56
2022/06/09 06:54:31;;;;;;;15.77;5.72;;;;;;;15.01;94.27;101225.78;4995704;28;20029;-56
2022/06/09 06:56:56;;;;;;;16.23;6.43;;;;;;;15.01;93.61;101223.97;4993045;28;20026;-56
2022/06/09 06:59:21;;;;;;;17.77;5.88;;;;;;;15.05;93.14;101230.72;4998362;28;20100;-56
2022/06/09 07:01:46;;;;;;;16.95;5.85;;;;;;;15.10;93.68;101230.31;5003265;28;20547;-56
2022/06/09 07:04:12;;;;;;;15.23;6.35;;;;;;;15.11;91.58;101227.50;4991905;28;20478;-57
2022/06/09 07:06:37;;;;;;;16.48;6.25;;;;;;;15.20;92.94;101235.69;4996273;28;20505;-56
2022/06/09 07:09:02;;;;;;;14.90;6.05;;;;;;;15.22;93.15;101234.56;4997392;28;20038;-57
2022/06/09 07:11:28;;;;;;;17.92;5.90;;;;;;;15.25;92.00;101244.97;4994720;28;20053;-56
2022/06/09 07:13:53;;;;;;;16.40;5.55;;;;;;;15.26;92.06;101253.88;4994397;28;20434;-56
2022/06/09 07:16:19;;;;;;;13.27;5.03;;;;;;;15.26;90.33;101257.38;4992904;28;20030;-57
2022/06/09 07:18:44;;;;;;;14.68;5.32;;;;;;;15.34;92.53;101259.38;4995237;28;20015;-56
2022/06/09 07:21:10;;;;;;;15.88;4.85;;;;;;;15.41;91.36;101265.03;5001416;28;20401;-57
2022/06/09 07:23:35;;;;;;;11.20;4.38;;;;;;;15.45;90.30;101269.09;5000876;28;20037;-56
2022/06/09 07:26:01;;;;;;;8.13;3.38;;;;;;;15.50;90.52;101258.81;5004159;28;20050;-57
2022/06/09 07:28:27;;;;;;;8.38;3.60;;;;;;;15.57;88.66;101261.78;4998868;28;20040;-56
2022/06/09 07:30:56;;;;;;;5.60;2.60;;;;;;;15.61;89.13;101266.72;4994238;28;20038;-56
2022/06/09 07:33:28;;;;;;;6.18;2.70;;;;;;;15.68;88.39;101275.03;5002771;28;20030;-56
2022/06/09 07:35:56;;;;;;;8.43;2.60;;;;;;;15.90;85.44;101269.44;4995132;28;20038;-56
2022/06/09 07:38:22;;;;;;;10.07;2.60;;;;;;;16.04;84.98;101270.00;4996126;28;20092;-57
2022/06/09 07:40:47;;;;;;;6.68;3.30;;;;;;;16.09;85.73;101268.56;5001833;28;20046;-55
2022/06/09 07:43:13;;;;;;;6.97;3.60;;;;;;;16.17;86.22;101269.66;5000477;28;20054;-56
2022/06/09 07:45:40;;;;;;;9.15;3.80;;;;;;;16.25;86.28;101273.34;4994318;28;20032;-57
2022/06/09 07:48:06;;;;;;;11.30;3.28;;;;;;;16.33;87.08;101269.09;4996196;28;20026;-56
2022/06/09 07:50:33;;;;;;;6.03;2.33;;;;;;;16.45;86.25;101276.81;5000349;28;20035;-57
2022/06/09 07:52:58;;;;;;;5.47;2.47;;;;;;;16.55;86.65;101282.13;5005983;28;20031;-57
2022/06/09 07:55:24;;;;;;;6.28;1.92;;;;;;;16.58;83.64;101278.31;5003360;28;20477;-57
2022/06/09 07:57:51;;;;;;;6.28;2.10;;;;;;;16.68;84.00;101284.50;5008700;28;20030;-57
2022/06/09 08:00:18;;;;;;;7.03;2.60;;;;;;;16.88;84.23;101285.28;5006281;28;20450;-57
2022/06/09 08:02:44;;;;;;;6.47;1.90;;;;;;;17.02;82.35;101287.50;5007243;28;20092;-55
2022/06/09 08:05:10;;;;;;;4.20;1.90;;;;;;;17.21;81.26;101296.44;5011005;28;20029;-58
2022/06/09 08:07:36;;;;;;;6.38;1.70;;;;;;;17.26;80.62;101293.31;5010413;28;20101;-57
2022/06/09 08:10:03;;;;;;;5.13;1.80;;;;;;;17.42;80.96;101293.50;5012581;28;20105;-57
2022/06/09 08:12:29;;;;;;;6.35;1.95;;;;;;;17.57;79.78;101291.97;5010070;28;20029;-57
2022/06/09 08:14:55;;;;;;;6.15;2.03;;;;;;;17.73;79.49;101301.16;5012208;28;20493;-57
2022/06/09 08:17:21;;;;;;;5.10;1.92;;;;;;;17.70;78.55;101293.41;5013408;28;20362;-57
2022/06/09 08:19:47;;;;;;;4.97;1.98;;;;;;;17.65;75.26;101299.28;5009658;28;20027;-56
2022/06/09 08:22:13;;;;;;;4.45;1.58;;;;;;;17.75;77.05;101309.91;5008546;28;20117;-56
2022/06/09 08:24:38;;;;;;;5.20;1.27;;;;;;;17.69;76.00;101308.69;5008364;28;20109;-57
2022/06/09 08:27:04;;;;;;;3.78;1.55;;;;;;;17.65;74.74;101322.56;5003643;28;20057;-56
2022/06/09 08:29:29;;;;;;;3.33;1.85;;;;;;;17.66;75.51;101317.06;5006535;28;20385;-56
2022/06/09 08:31:55;;;;;;;3.50;1.60;;;;;;;17.74;75.51;101319.84;5013845;28;20030;-57
2022/06/09 08:34:21;;;;;;;4.07;1.70;;;;;;;17.71;76.06;101325.50;5001118;28;20030;-57
2022/06/09 08:36:46;;;;;;;6.57;1.83;;;;;;;17.76;75.79;101330.44;5004521;28;20018;-56
2022/06/09 08:39:11;;;;;;;4.43;1.70;;;;;;;17.85;75.96;101336.72;5004957;28;20523;-57
2022/06/09 08:41:52;;;;;;;3.30;1.95;;;;;;;17.91;76.87;101336.97;5011665;28;20370;-57
2022/06/09 08:44:34;;;;;;;4.07;1.58;;;;;;;18.03;75.95;101336.75;5002355;28;20033;-57
2022/06/09 08:47:06;;;;;;;5.28;1.70;;;;;;;18.10;75.10;101341.38;5010008;28;20141;-57
2022/06/09 08:49:50;;;;;;;3.28;1.55;;;;;;;18.21;75.47;101344.81;5001144;28;20491;-56
2022/06/09 08:52:42;;;;;;;5.05;1.80;;;;;;;18.33;74.04;101348.09;5005557;28;20038;-57
2022/06/09 08:55:11;;;;;;;4.38;1.33;;;;;;;18.43;72.77;101352.34;5005085;28;20128;-58
2022/06/09 08:57:37;;;;;;;4.57;1.40;;;;;;;18.48;71.86;101349.22;5011881;28;20029;-58
2022/06/09 09:00:03;;;;;;;4.97;1.73;;;;;;;18.48;72.14;101347.38;5010030;28;20026;-57
2022/06/09 09:02:38;;;;;;;4.63;1.83;;;;;;;18.51;73.24;101354.28;5011292;28;20409;-57
2022/06/09 09:05:20;;;;;;;5.35;1.92;;;;;;;18.63;73.71;101355.69;5012213;28;20042;-57
2022/06/09 09:07:50;;;;;;;3.28;2.05;;;;;;;18.55;71.94;101361.03;5013958;28;20026;-57
2022/06/09 09:10:51;;;;;;;7.25;2.28;;;;;;;18.67;72.78;101369.69;5012639;28;20108;-56
2022/06/09 09:13:35;;;;;;;5.68;2.33;;;;;;;18.70;72.89;101363.97;5008894;28;20048;-56
2022/06/09 09:16:07;;;;;;;6.95;1.90;;;;;;;18.55;72.40;101365.56;4999478;28;20026;-57
2022/06/09 09:18:47;;;;;;;3.65;1.88;;;;;;;18.53;73.34;101364.88;4998322;28;20088;-56
2022/06/09 09:21:23;;;;;;;8.30;2.40;;;;;;;18.51;73.20;101373.09;4998694;28;20034;-57
2022/06/09 09:23:59;;;;;;;6.45;2.38;;;;;;;18.48;73.50;101376.09;5011787;28;20057;-57
2022/06/09 09:26:37;;;;;;;8.48;2.75;;;;;;;18.55;72.84;101374.50;5008284;28;20082;-56
2022/06/09 09:29:40;;;;;;;8.40;2.87;;;;;;;18.54;73.72;101377.34;4998880;28;20096;-56
2022/06/09 09:32:13;;;;;;;7.95;2.70;;;;;;;18.45;71.90;101382.66;4994322;28;20791;-56
2022/06/09 09:34:44;;;;;;;6.45;2.47;;;;;;;18.56;72.84;101386.09;5005749;28;20508;-57
2022/06/09 09:37:23;;;;;;;7.40;3.03;;;;;;;18.55;72.53;101385.25;4998097;28;20015;-56
2022/06/09 09:39:55;;;;;;;9.03;2.83;;;;;;;18.59;72.94;101386.63;4999190;28;20041;-56
2022/06/09 09:42:26;;;;;;;8.88;3.20;;;;;;;18.62;72.54;101397.06;4996467;28;20304;-57
2022/06/09 09:45:00;;;;;;;8.45;3.20;;;;;;;18.63;73.51;101390.66;4995961;28;20026;-56
2022/06/09 09:47:28;;;;;;;16.40;3.83;;;;;;;18.70;71.84;101398.97;4994916;28;20039;-57
2022/06/09 09:50:04;;;;;;;8.50;3.50;;;;;;;18.78;70.96;101401.72;4995937;28;20030;-57
2022/06/09 09:52:43;;;;;;;5.90;3.38;;;;;;;19.13;72.11;101397.25;4994948;28;20038;-57
2022/06/09 09:55:25;;;;;;;6.15;3.50;;;;;;;19.45;70.01;101405.63;4996534;28;20508;-57
2022/06/09 09:58:25;;;;;;;4.28;2.65;;;;;;;19.82;71.49;101407.13;4997371;28;20034;-58
2022/06/09 10:01:14;;;;;;;3.92;2.58;;;;;;;19.85;69.95;101413.06;4984969;28;20042;-57
2022/06/09 10:09:49;;;;;;;8.45;2.65;;;;;;;19.65;71.04;101425.94;5010840;28;20556;-57
2022/06/09 10:12:26;;;;;;;7.63;2.60;;;;;;;19.57;72.34;101434.81;4992712;28;20022;-58
2022/06/09 10:14:53;;;;;;;4.57;2.58;;;;;;;19.53;71.16;101438.00;5008239;28;20461;-58
2022/06/09 10:17:52;;;;;;;13.18;3.30;;;;;;;19.57;72.38;101442.06;5012857;28;20050;-57
2022/06/09 10:20:21;;;;;;;;;;;;;;;19.65;72.85;101441.25;4997612;28;20041;-58
2022/06/09 10:23:09;;;;;;;5.68;2.60;;;;;;;19.27;71.36;101440.72;5006803;28;19918;-57
2022/06/09 10:25:49;;;;;;;7.87;2.97;;;;;;;19.12;72.59;101446.72;5007907;28;20068;-57
2022/06/09 10:28:26;;;;;;;6.20;2.78;;;;;;;19.33;73.66;101446.31;4997847;28;20512;-57
2022/06/09 10:31:09;;;;;;;8.93;3.08;;;;;;;19.56;73.86;101441.22;4992011;28;20042;-58
2022/06/09 10:33:38;;;;;;;6.53;3.00;;;;;;;20.03;73.15;101442.56;5004810;28;20053;-58
2022/06/09 10:36:27;;;;;;;7.38;3.50;;;;;;;20.37;72.71;101446.16;4999444;28;20037;-57
2022/06/09 10:39:01;;;;;;;6.68;3.90;;;;;;;20.75;69.45;101444.69;4976451;28;20066;-57
2022/06/09 10:41:54;;;;;;;6.28;4.10;;;;;;;21.15;69.97;101448.34;5009676;28;20049;-57
2022/06/09 10:44:27;;;;;;;7.60;4.35;;;;;;;21.57;68.13;101449.09;5002151;28;20375;-57
2022/06/09 10:55:52;;;;;;;5.72;3.10;;;;;;;22.61;60.82;101462.34;5002955;28;20056;-56
2022/06/09 10:58:29;;;;;;;4.53;2.50;;;;;;;22.74;59.81;101457.13;4995427;28;20033;-57
2022/06/09 11:00:56;;;;;;;5.93;2.50;;;;;;;22.80;57.11;101469.97;5011581;28;20042;-56
2022/06/09 11:03:24;;;;;;;4.97;2.20;;;;;;;22.92;57.60;101470.34;5009055;28;20113;-57
2022/06/09 11:05:50;;;;;;;5.72;2.75;;;;;;;23.07;57.53;101460.41;5000036;28;20450;-57
2022/06/09 11:08:27;;;;;;;7.43;2.73;;;;;;;23.04;57.96;101462.63;4996058;28;20084;-56
2022/06/09 11:11:07;;;;;;;5.10;2.47;;;;;;;23.06;54.84;101464.13;5002254;28;20041;-57
2022/06/09 11:13:41;;;;;;;4.93;2.20;;;;;;;22.89;56.43;101473.41;5010908;28;20034;-58
2022/06/09 11:16:12;;;;;;;6.18;2.10;;;;;;;23.05;55.69;101475.97;5005985;28;20046;-55
2022/06/09 11:19:04;;;;;;;5.53;2.20;;;;;;;22.96;56.98;101485.19;5000567;28;20425;-57
2022/06/09 11:21:48;;;;;;;8.27;2.90;;;;;;;22.79;58.65;101475.56;4993212;28;20050;-58
2022/06/09 11:24:31;;;;;;;13.32;2.45;;;;;;;22.45;56.40;101476.81;5005679;28;20122;-58
2022/06/09 11:27:19;;;;;;;8.05;2.30;;;;;;;22.33;55.62;101481.81;5006607;28;20058;-57
2022/06/09 11:30:01;;;;;;;6.93;2.88;;;;;;;22.17;58.39;101490.88;4999692;28;20049;-57
2022/06/09 11:32:33;;;;;;;8.30;3.42;;;;;;;21.93;58.14;101495.41;5010758;28;20045;-57
2022/06/09 11:35:25;;;;;;;7.45;2.70;;;;;;;21.98;59.60;101486.72;5003772;28;20058;-56
2022/06/09 11:38:12;;;;;;;9.02;2.72;;;;;;;21.70;58.53;101494.47;5005354;28;20385;-57
2022/06/09 11:41:08;;;;;;;10.05;2.47;;;;;;;21.60;58.59;101498.22;5007401;28;20038;-56
2022/06/09 11:43:52;;;;;;;10.65;2.70;;;;;;;21.49;58.07;101501.31;4993320;28;20022;-56
2022/06/09 11:46:30;;;;;;;10.02;2.58;;;;;;;21.42;59.19;101497.59;4994342;28;20033;-57
2022/06/09 11:48:59;;;;;;;7.13;2.40;;;;;;;21.20;57.75;101510.81;5009348;28;20026;-57
2022/06/09 11:51:28;;;;;;;7.60;2.72;;;;;;;21.14;58.21;101518.75;5000178;28;20381;-56
2022/06/09 11:53:56;;;;;;;6.82;2.55;;;;;;;21.07;57.29;101526.69;5006724;28;20428;-56
2022/06/09 11:56:45;;;;;;;8.05;2.42;;;;;;;20.96;58.49;101529.72;5012371;28;20046;-57